createdAt,value
2019-01-05T00:01:36.867Z,4.30
2019-01-05T00:04:31.667Z,4.30
2019-01-05T00:07:19.127Z,4.40
2019-01-05T00:10:08.151Z,4.30
2019-01-05T00:12:56.064Z,4.40
2019-01-05T00:16:01.182Z,4.30
2019-01-05T00:19:05.667Z,4.40
2019-01-05T00:21:53.908Z,4.40
2019-01-05T00:24:41.753Z,4.40
2019-01-05T00:27:31.564Z,4.40
2019-01-05T00:30:23.847Z,4.40
2019-01-05T00:33:29.593Z,4.40
2019-01-05T00:36:21.671Z,4.40
2019-01-05T00:39:23.819Z,4.40
2019-01-05T00:42:13.543Z,4.30
2019-01-05T00:45:10.257Z,4.30
2019-01-05T00:47:59.264Z,4.30
2019-01-05T00:51:07.667Z,4.30
2019-01-05T00:54:15.769Z,4.30
2019-01-05T00:57:04.315Z,4.30
2019-01-05T00:59:56.275Z,4.30
2019-01-05T01:03:00.659Z,4.30
2019-01-05T01:05:58.279Z,4.30
2019-01-05T01:08:50.120Z,4.30
2019-01-05T01:11:45.030Z,4.30
2019-01-05T01:14:33.914Z,4.30
2019-01-05T01:17:25.983Z,4.30
2019-01-05T01:20:14.652Z,4.30
2019-01-05T01:23:10.113Z,4.30
2019-01-05T01:26:01.819Z,4.30
2019-01-05T01:29:06.403Z,4.20
2019-01-05T01:31:47.991Z,4.20
2019-01-05T01:34:30.194Z,4.20
2019-01-05T01:37:17.728Z,4.20
2019-01-05T01:40:10.384Z,4.20
2019-01-05T01:43:14.243Z,4.30
2019-01-05T01:46:02.507Z,4.20
2019-01-05T01:48:54.039Z,4.20
2019-01-05T01:51:42.342Z,4.30
2019-01-05T01:54:31.959Z,4.20
2019-01-05T01:57:18.381Z,4.30
2019-01-05T02:00:18.543Z,4.20
2019-01-05T02:03:05.993Z,4.20
2019-01-05T02:05:54.899Z,4.10
2019-01-05T02:08:43.803Z,4.20
2019-01-05T02:11:36.628Z,4.20
2019-01-05T02:14:32.433Z,4.20
2019-01-05T02:17:25.299Z,4.20
2019-01-05T02:21:07.663Z,4.10
2019-01-05T02:24:40.192Z,4.10
2019-01-05T02:28:16.947Z,4.20
2019-01-05T02:31:44.557Z,4.10
2019-01-05T02:34:54.553Z,4.10
2019-01-05T02:38:47.167Z,4.10
2019-01-05T02:42:15.535Z,4.10
2019-01-05T02:45:37.840Z,4.10
2019-01-05T02:49:14.936Z,4.10
2019-01-05T02:53:10.177Z,4.00
2019-01-05T02:56:51.779Z,4.00
2019-01-05T03:00:27.135Z,3.90
2019-01-05T03:03:59.459Z,3.90
2019-01-05T03:07:11.993Z,3.80
2019-01-05T03:11:11.611Z,3.80
2019-01-05T03:14:42.183Z,3.70
2019-01-05T03:18:30.708Z,3.50
2019-01-05T03:21:54.756Z,3.40
2019-01-05T03:25:31.653Z,3.30
2019-01-05T03:29:03.707Z,3.20
2019-01-05T03:32:25.497Z,3.20
2019-01-05T03:35:36.303Z,3.30
2019-01-05T03:38:54.099Z,3.30
2019-01-05T03:42:26.920Z,3.40
2019-01-05T03:45:38.545Z,3.30
2019-01-05T03:49:06.864Z,3.30
2019-01-05T03:52:38.087Z,3.30
2019-01-05T03:56:34.843Z,3.30
2019-01-05T04:00:28.511Z,3.40
2019-01-05T04:03:53.176Z,3.40
2019-01-05T04:07:16.695Z,3.40
2019-01-05T04:10:51.571Z,3.40
2019-01-05T04:14:32.336Z,3.30
2019-01-05T04:18:16.683Z,3.30
2019-01-05T04:21:48.995Z,3.30
2019-01-05T04:25:20.920Z,3.40
2019-01-05T04:29:11.253Z,3.40
2019-01-05T04:32:56.947Z,3.50
2019-01-05T04:36:39.115Z,3.50
2019-01-05T04:40:08.835Z,3.50
2019-01-05T04:43:39.888Z,3.30
2019-01-05T04:47:13.735Z,3.20
2019-01-05T04:50:32.923Z,3.20
2019-01-05T04:54:19.530Z,3.30
2019-01-05T04:58:01.447Z,3.30
2019-01-05T05:01:27.307Z,3.40
2019-01-05T05:05:11.391Z,3.40
2019-01-05T05:09:14.105Z,3.40
2019-01-05T05:12:46.581Z,3.30
2019-01-05T05:16:22.987Z,3.20
2019-01-05T05:19:57.135Z,3.20
2019-01-05T05:23:59.523Z,3.10
2019-01-05T05:27:14.091Z,3.00
2019-01-05T05:30:52.649Z,3.00
2019-01-05T05:34:30.307Z,3.10
2019-01-05T05:38:06.996Z,3.10
2019-01-05T05:41:27.959Z,3.10
2019-01-05T05:44:53.311Z,3.10
2019-01-05T05:48:27.436Z,3.20
2019-01-05T05:52:08.313Z,3.20
2019-01-05T05:55:38.127Z,3.20
2019-01-05T05:59:23.008Z,3.10
2019-01-05T06:02:59.791Z,3.10
2019-01-05T06:06:43.477Z,3.10
2019-01-05T06:10:26.440Z,3.00
2019-01-05T06:14:04.321Z,2.90
2019-01-05T06:17:22.827Z,2.80
2019-01-05T06:21:09.411Z,2.80
2019-01-05T06:24:30.225Z,2.80
2019-01-05T06:28:13.635Z,2.80
2019-01-05T06:31:28.488Z,2.90
2019-01-05T06:34:59.080Z,2.90
2019-01-05T06:38:25.327Z,2.80
2019-01-05T06:42:15.783Z,2.70
2019-01-05T06:46:00.136Z,2.70
2019-01-05T06:49:38.718Z,2.60
2019-01-05T06:53:06.301Z,2.50
2019-01-05T06:56:40.423Z,2.50
2019-01-05T07:00:08.660Z,2.40
2019-01-05T07:03:35.539Z,2.40
2019-01-05T07:06:47.805Z,2.40
2019-01-05T07:10:32.372Z,2.40
2019-01-05T07:13:55.416Z,2.30
2019-01-05T07:17:55.211Z,2.20
2019-01-05T07:21:38.655Z,2.20
2019-01-05T07:25:08.983Z,2.30
2019-01-05T07:28:36.394Z,2.30
2019-01-05T07:31:44.644Z,2.30
2019-01-05T07:35:08.775Z,2.20
2019-01-05T07:38:32.707Z,2.20
2019-01-05T07:41:54.417Z,2.20
2019-01-05T07:45:30.926Z,2.20
2019-01-05T07:49:03.323Z,2.20
2019-01-05T07:52:34.173Z,2.20
2019-01-05T07:56:13.463Z,2.20
2019-01-05T07:59:43.760Z,2.30
2019-01-05T08:03:19.547Z,2.20
2019-01-05T08:07:01.671Z,2.30
2019-01-05T08:10:29.555Z,2.30
2019-01-05T08:14:01.736Z,2.30
2019-01-05T08:17:39.435Z,2.30
2019-01-05T08:21:19.908Z,2.40
2019-01-05T08:24:41.159Z,2.40
2019-01-05T08:28:14.835Z,2.40
2019-01-05T08:31:56.955Z,2.30
2019-01-05T08:35:27.143Z,2.40
2019-01-05T08:38:51.196Z,2.40
2019-01-05T08:42:15.637Z,2.40
2019-01-05T08:45:55.915Z,2.40
2019-01-05T08:49:12.627Z,2.40
2019-01-05T08:52:48.359Z,2.50
2019-01-05T08:56:17.959Z,2.50
2019-01-05T08:59:45.239Z,2.50
2019-01-05T09:03:27.767Z,2.50
2019-01-05T09:06:50.237Z,2.60
2019-01-05T09:10:36.486Z,2.60
2019-01-05T09:14:06.043Z,2.60
2019-01-05T09:17:56.855Z,2.60
2019-01-05T09:21:28.295Z,2.60
2019-01-05T09:25:03.022Z,2.60
2019-01-05T09:28:46.872Z,2.50
2019-01-05T09:32:36.152Z,2.50
2019-01-05T09:36:06.456Z,2.50
2019-01-05T09:39:41.384Z,2.50
2019-01-05T09:42:59.924Z,2.50
2019-01-05T09:46:46.479Z,2.50
2019-01-05T09:50:14.259Z,2.50
2019-01-05T09:54:00.315Z,2.50
2019-01-05T09:57:30.224Z,2.60
2019-01-05T10:00:53.512Z,2.70
2019-01-05T10:04:52.337Z,2.70
2019-01-05T10:08:29.971Z,2.50
2019-01-05T10:11:56.880Z,2.20
2019-01-05T10:15:53.203Z,2.20
2019-01-05T10:19:17.823Z,2.30
2019-01-05T10:22:45.375Z,2.30
2019-01-05T10:26:10.355Z,3.00
2019-01-05T10:29:47.666Z,3.80
2019-01-05T10:33:06.124Z,4.60
2019-01-05T10:36:46.080Z,4.40
2019-01-05T10:40:17.356Z,4.90
2019-01-05T10:44:08.771Z,5.10
2019-01-05T10:47:40.932Z,4.10
2019-01-05T10:51:12.520Z,3.30
2019-01-05T10:54:50.846Z,2.90
2019-01-05T10:58:19.611Z,2.60
2019-01-05T11:02:01.175Z,2.40
2019-01-05T11:05:40.835Z,2.40
2019-01-05T11:09:18.219Z,2.20
2019-01-05T11:12:52.631Z,2.20
2019-01-05T11:16:14.635Z,2.30
2019-01-05T11:19:29.281Z,2.30
2019-01-05T11:23:01.323Z,2.30
2019-01-05T11:26:41.439Z,2.40
2019-01-05T11:30:12.439Z,2.30
2019-01-05T11:33:40.736Z,2.40
2019-01-05T11:37:13.693Z,2.30
2019-01-05T11:40:58.563Z,2.30
2019-01-05T11:44:27.032Z,2.20
2019-01-05T11:47:43.475Z,2.20
2019-01-05T11:51:22.928Z,2.20
2019-01-05T11:54:57.091Z,2.20
2019-01-05T11:58:39.333Z,5.80
2019-01-05T12:02:22.861Z,3.70
2019-01-05T12:06:05.845Z,3.70
2019-01-05T12:09:47.548Z,4.00
2019-01-05T12:13:32.528Z,3.50
2019-01-05T12:17:06.468Z,3.20
2019-01-05T12:20:57.519Z,2.50
2019-01-05T12:24:31.884Z,2.20
2019-01-05T12:28:07.224Z,2.00
2019-01-05T12:31:54.657Z,2.10
2019-01-05T12:35:34.067Z,2.10
2019-01-05T12:38:59.010Z,2.30
2019-01-05T12:42:42.586Z,2.20
2019-01-05T12:46:23.667Z,2.10
2019-01-05T12:49:57.131Z,2.30
2019-01-05T12:53:56.012Z,2.40
2019-01-05T12:57:42.275Z,2.30
2019-01-05T13:01:17.457Z,2.40
2019-01-05T13:04:34.451Z,2.50
2019-01-05T13:08:06.919Z,2.30
2019-01-05T13:11:33.455Z,2.10
2019-01-05T13:15:13.398Z,2.00
2019-01-05T13:18:53.687Z,1.90
2019-01-05T13:22:20.832Z,1.90
2019-01-05T13:26:03.080Z,1.80
2019-01-05T13:29:15.304Z,1.70
2019-01-05T13:32:31.786Z,1.60
2019-01-05T13:35:59.635Z,1.50
2019-01-05T13:39:49.627Z,1.40
2019-01-05T13:43:15.379Z,1.40
2019-01-05T13:47:17.184Z,1.30
2019-01-05T13:50:37.731Z,1.30
2019-01-05T13:53:46.869Z,1.40
2019-01-05T13:56:47.836Z,1.30
2019-01-05T13:59:54.608Z,1.30
2019-01-05T14:02:56.497Z,1.30
2019-01-05T14:05:43.847Z,1.20
2019-01-05T14:08:36.690Z,1.10
2019-01-05T14:11:24.504Z,1.10
2019-01-05T14:14:16.119Z,1.00
2019-01-05T14:17:03.882Z,1.00
2019-01-05T14:19:52.759Z,1.00
2019-01-05T14:22:41.591Z,0.90
2019-01-05T14:25:30.475Z,0.90
2019-01-05T14:28:25.191Z,0.80
2019-01-05T14:31:08.679Z,0.80
2019-01-05T14:34:00.121Z,0.80
2019-01-05T14:36:46.827Z,0.80
2019-01-05T14:39:34.154Z,0.80
2019-01-05T14:42:31.855Z,0.80
2019-01-05T14:45:19.279Z,0.80
2019-01-05T14:48:14.107Z,0.80
2019-01-05T14:51:01.707Z,0.80
2019-01-05T14:53:50.472Z,0.80
2019-01-05T14:56:39.384Z,0.80
2019-01-05T14:59:37.072Z,0.80
2019-01-05T15:02:26.896Z,0.80
2019-01-05T15:05:14.299Z,0.70
2019-01-05T15:08:22.273Z,0.70
2019-01-05T15:11:09.907Z,0.70
2019-01-05T15:13:57.675Z,0.60
2019-01-05T15:16:45.471Z,0.60
2019-01-05T15:19:32.807Z,0.70
2019-01-05T15:22:31.732Z,0.70
2019-01-05T15:25:20.443Z,0.80
2019-01-05T15:28:12.172Z,0.70
2019-01-05T15:31:13.071Z,0.80
2019-01-05T15:34:02.207Z,0.80
2019-01-05T15:36:50.324Z,0.80
2019-01-05T15:39:38.044Z,0.70
2019-01-05T15:42:25.772Z,0.70
2019-01-05T15:45:13.299Z,0.60
2019-01-05T15:48:08.271Z,0.60
2019-01-05T15:51:15.172Z,0.50
2019-01-05T15:54:06.647Z,0.50
2019-01-05T15:56:54.112Z,0.40
2019-01-05T15:59:42.861Z,0.40
2019-01-05T16:02:30.189Z,0.40
2019-01-05T16:05:37.365Z,0.40
2019-01-05T16:08:26.215Z,0.40
2019-01-05T16:11:18.003Z,0.30
2019-01-05T16:14:05.677Z,0.30
2019-01-05T16:16:57.504Z,0.30
2019-01-05T16:19:45.031Z,0.30
2019-01-05T16:22:36.751Z,0.30
2019-01-05T16:25:27.623Z,0.30
2019-01-05T16:28:30.848Z,0.30
2019-01-05T16:31:18.659Z,0.30
2019-01-05T16:34:06.611Z,0.20
2019-01-05T16:37:10.671Z,0.20
2019-01-05T16:40:02.575Z,0.10
2019-01-05T16:42:51.320Z,0.10
2019-01-05T16:45:39.982Z,0.20
2019-01-05T16:48:27.351Z,0.20
2019-01-05T16:51:27.618Z,0.30
2019-01-05T16:54:25.287Z,0.30
2019-01-05T16:57:17.017Z,0.30
2019-01-05T17:00:05.875Z,0.20
2019-01-05T17:02:53.741Z,0.20
2019-01-05T17:05:46.435Z,0.20
2019-01-05T17:08:41.148Z,0.20
2019-01-05T17:11:45.392Z,0.10
2019-01-05T17:14:44.120Z,0.10
2019-01-05T17:17:35.824Z,0.10
2019-01-05T17:20:31.455Z,0.10
2019-01-05T17:23:20.855Z,0.00
2019-01-05T17:26:24.876Z,-0.10
2019-01-05T17:29:13.741Z,-0.20
2019-01-05T17:31:56.675Z,-0.20
2019-01-05T17:35:00.842Z,-0.20
2019-01-05T17:37:44.011Z,-0.10
2019-01-05T17:40:32.899Z,-0.10
2019-01-05T17:43:21.727Z,-0.10
2019-01-05T17:46:09.335Z,-0.10
2019-01-05T17:48:57.347Z,-0.10
2019-01-05T17:51:47.406Z,-0.10
2019-01-05T17:54:53.983Z,0.00
2019-01-05T17:57:42.394Z,0.00
2019-01-05T18:00:34.056Z,0.00
2019-01-05T18:03:21.567Z,0.00
2019-01-05T18:06:16.422Z,0.00
2019-01-05T18:09:06.616Z,0.00
2019-01-05T18:12:07.446Z,0.00
2019-01-05T18:15:02.028Z,0.00
2019-01-05T18:17:53.667Z,-0.10
2019-01-05T18:20:48.308Z,-0.10
2019-01-05T18:23:36.077Z,-0.10
2019-01-05T18:26:28.103Z,0.00
2019-01-05T18:29:22.987Z,0.10
2019-01-05T18:32:22.972Z,0.10
2019-01-05T18:35:27.163Z,0.10
2019-01-05T18:38:22.562Z,0.10
2019-01-05T18:41:20.421Z,0.00
2019-01-05T18:44:07.858Z,-0.10
2019-01-05T18:47:08.771Z,-0.10
2019-01-05T18:49:56.230Z,-0.10
2019-01-05T18:52:43.512Z,-0.10
2019-01-05T18:55:38.425Z,0.00
2019-01-05T18:58:27.349Z,0.00
2019-01-05T19:01:18.976Z,0.00
2019-01-05T19:04:07.651Z,0.00
2019-01-05T19:07:00.314Z,-0.10
2019-01-05T19:09:56.424Z,-0.10
2019-01-05T19:12:48.132Z,-0.30
2019-01-05T19:15:41.276Z,-0.30
2019-01-05T19:18:39.362Z,-0.40
2019-01-05T19:21:31.403Z,-0.40
2019-01-05T19:24:35.544Z,-0.40
2019-01-05T19:27:23.344Z,-0.30
2019-01-05T19:30:14.961Z,-0.30
2019-01-05T19:33:22.539Z,-0.40
2019-01-05T19:36:10.086Z,-0.40
2019-01-05T19:39:08.758Z,-0.30
2019-01-05T19:41:58.636Z,-0.40
2019-01-05T19:44:53.556Z,-0.40
2019-01-05T19:47:54.856Z,-0.50
2019-01-05T19:50:45.710Z,-0.50
2019-01-05T19:53:34.427Z,-0.50
2019-01-05T19:56:21.844Z,-0.50
2019-01-05T19:59:11.000Z,-0.60
2019-01-05T20:02:08.752Z,-0.60
2019-01-05T20:05:17.179Z,-0.60
2019-01-05T20:08:12.355Z,-0.60
2019-01-05T20:11:13.200Z,-0.60
2019-01-05T20:14:00.960Z,-0.50
2019-01-05T20:16:48.745Z,-0.50
2019-01-05T20:19:52.674Z,-0.30
2019-01-05T20:22:41.712Z,-0.30
2019-01-05T20:25:29.129Z,-0.30
2019-01-05T20:28:17.016Z,-0.40
2019-01-05T20:31:07.528Z,-0.40
2019-01-05T20:33:54.826Z,-0.50
2019-01-05T20:36:43.699Z,-0.50
2019-01-05T20:39:50.612Z,-0.50
2019-01-05T20:42:42.900Z,-0.50
2019-01-05T20:45:47.160Z,-0.40
2019-01-05T20:48:40.299Z,-0.40
2019-01-05T20:51:44.950Z,-0.50
2019-01-05T20:54:35.499Z,-0.50
2019-01-05T20:57:30.156Z,-0.50
2019-01-05T21:00:29.047Z,-0.50
2019-01-05T21:03:20.518Z,-0.40
2019-01-05T21:06:12.220Z,-0.60
2019-01-05T21:08:59.713Z,-0.60
2019-01-05T21:11:59.471Z,-0.70
2019-01-05T21:14:49.897Z,-0.70
2019-01-05T21:17:44.423Z,-0.70
2019-01-05T21:20:51.628Z,-0.70
2019-01-05T21:23:40.560Z,-0.80
2019-01-05T21:26:28.464Z,-0.80
2019-01-05T21:29:23.384Z,-0.80
2019-01-05T21:32:10.819Z,-0.80
2019-01-05T21:35:05.257Z,-0.80
2019-01-05T21:37:56.929Z,-0.90
2019-01-05T21:41:04.224Z,-0.80
2019-01-05T21:44:02.131Z,-0.70
2019-01-05T21:46:50.084Z,-0.60
2019-01-05T21:49:54.317Z,-0.50
2019-01-05T21:52:55.251Z,-0.50
2019-01-05T21:55:52.943Z,-0.60
2019-01-05T21:58:40.531Z,-0.60
2019-01-05T22:01:46.516Z,-0.70
2019-01-05T22:04:38.247Z,-0.80
2019-01-05T22:07:30.186Z,-0.90
2019-01-05T22:10:17.748Z,-0.90
2019-01-05T22:13:06.667Z,-1.00
2019-01-05T22:15:54.195Z,-1.00
2019-01-05T22:18:46.304Z,-0.90
2019-01-05T22:21:53.535Z,-0.90
2019-01-05T22:25:00.621Z,-0.90
2019-01-05T22:27:49.500Z,-1.00
2019-01-05T22:30:37.087Z,-1.10
2019-01-05T22:33:27.572Z,-1.10
2019-01-05T22:36:19.220Z,-1.20
2019-01-05T22:39:19.864Z,-1.20
2019-01-05T22:42:01.384Z,-1.20
2019-01-05T22:44:49.082Z,-1.10
2019-01-05T22:47:47.451Z,-1.10
2019-01-05T22:50:42.432Z,-1.10
2019-01-05T22:53:49.779Z,-1.20
2019-01-05T22:56:48.908Z,-1.20
2019-01-05T22:59:38.664Z,-1.30
2019-01-05T23:02:45.223Z,-1.30
2019-01-05T23:05:32.863Z,-1.40
2019-01-05T23:08:37.075Z,-1.40
2019-01-05T23:11:25.264Z,-1.30
2019-01-05T23:14:32.218Z,-1.20
2019-01-05T23:17:28.724Z,-1.10
2019-01-05T23:20:33.035Z,-1.10
2019-01-05T23:23:22.782Z,-1.00
2019-01-05T23:26:09.997Z,-1.00
2019-01-05T23:29:00.190Z,-0.90
2019-01-05T23:31:53.651Z,-0.80
2019-01-05T23:34:41.171Z,-0.90
2019-01-05T23:37:48.347Z,-0.80
2019-01-05T23:40:37.120Z,-0.80
2019-01-05T23:43:25.877Z,-0.70
2019-01-05T23:46:20.487Z,-0.60
2019-01-05T23:49:08.237Z,-0.60
2019-01-05T23:51:55.671Z,-0.60
2019-01-05T23:54:47.487Z,-0.50
2019-01-05T23:57:35.343Z,-0.50
